createdAt,value
2022-07-30T00:13:34.382Z,16.88
2022-07-30T00:27:44.637Z,16.65
2022-07-30T00:41:57.133Z,16.45
2022-07-30T00:56:10.500Z,16.29
2022-07-30T01:10:23.696Z,16.21
2022-07-30T01:24:37.357Z,16.18
2022-07-30T01:38:50.361Z,16.14
2022-07-30T01:53:02.283Z,15.93
2022-07-30T02:07:14.346Z,15.64
2022-07-30T02:21:30.522Z,15.52
2022-07-30T02:35:39.926Z,15.33
2022-07-30T02:49:53.199Z,15.4
2022-07-30T03:04:06.254Z,15.31
2022-07-30T03:18:18.636Z,15.15
2022-07-30T03:32:31.390Z,15.12
2022-07-30T03:46:43.419Z,14.94
2022-07-30T04:00:56.406Z,14.91
2022-07-30T04:16:05.767Z,14.82
2022-07-30T04:29:24.616Z,14.85
2022-07-30T04:43:35.022Z,14.96
2022-07-30T04:57:47.906Z,15.18
2022-07-30T05:12:00.682Z,15.44
2022-07-30T05:26:13.870Z,15.79
2022-07-30T05:40:28.523Z,16.31
2022-07-30T05:54:43.316Z,16.75
2022-07-30T06:08:57.254Z,17.10
2022-07-30T06:14:39.706Z,17.28
2022-07-30T06:15:42.240Z,17.32
2022-07-30T06:23:11.249Z,17.57
2022-07-30T06:29:27.479Z,17.69
2022-07-30T06:30:30.464Z,17.74
2022-07-30T06:31:32.333Z,17.74
2022-07-30T06:37:58.590Z,18.17
2022-07-30T06:37:58.592Z,18.13
2022-07-30T06:38:55.385Z,18.23
2022-07-30T06:40:03.400Z,18.29
2022-07-30T06:51:42.212Z,18.51
2022-07-30T06:52:45.581Z,18.80
2022-07-30T07:02:19.720Z,19.22
2022-07-30T07:03:22.216Z,19.28
2022-07-30T07:04:24.655Z,19.34
2022-07-30T07:05:27.063Z,19.42
2022-07-30T07:06:29.537Z,19.49
2022-07-30T07:07:41.602Z,19.54
2022-07-30T07:08:36.094Z,19.59
2022-07-30T07:09:40.093Z,19.63
2022-07-30T07:10:42.374Z,19.67
2022-07-30T07:11:44.940Z,19.70
2022-07-30T07:12:47.295Z,19.72
2022-07-30T07:13:49.710Z,19.74
2022-07-30T07:14:53.855Z,19.76
2022-07-30T07:15:57.767Z,19.78
2022-07-30T07:17:00.346Z,19.81
2022-07-30T07:18:04.031Z,19.82
2022-07-30T07:19:06.321Z,19.83
2022-07-30T07:20:14.328Z,19.85
2022-07-30T07:21:16.508Z,19.86
2022-07-30T07:22:19.026Z,19.87
2022-07-30T07:23:21.419Z,19.89
2022-07-30T07:24:25.404Z,19.90
2022-07-30T07:25:29.362Z,19.91
2022-07-30T07:26:33.169Z,19.93
2022-07-30T07:27:35.548Z,19.94
2022-07-30T07:28:37.984Z,19.96
2022-07-30T07:29:42.027Z,19.97
2022-07-30T07:30:44.630Z,19.98
2022-07-30T07:32:02.872Z,19.99
2022-07-30T07:32:49.171Z,19.98
2022-07-30T07:33:53.163Z,20.00
2022-07-30T07:34:55.697Z,19.98
2022-07-30T07:35:57.897Z,20.06
2022-07-30T07:37:02.241Z,20.08
2022-07-30T07:38:05.950Z,20.10
2022-07-30T07:39:08.202Z,20.13
2022-07-30T07:40:12.226Z,20.16
2022-07-30T07:41:14.634Z,20.17
2022-07-30T07:42:17.052Z,20.21
2022-07-30T07:43:19.466Z,20.23
2022-07-30T07:44:21.948Z,20.26
2022-07-30T07:45:25.958Z,20.30
2022-07-30T07:46:33.306Z,20.33
2022-07-30T07:47:32.376Z,20.38
2022-07-30T07:48:34.688Z,20.34
2022-07-30T07:49:37.047Z,20.46
2022-07-30T07:50:41.070Z,20.49
2022-07-30T07:51:46.976Z,20.51
2022-07-30T07:52:45.883Z,20.55
2022-07-30T07:54:00.409Z,20.60
2022-07-30T07:54:52.550Z,20.67
2022-07-30T07:55:54.785Z,20.65
2022-07-30T07:56:59.169Z,20.75
2022-07-30T07:58:01.071Z,20.79
2022-07-30T07:59:03.390Z,20.83
2022-07-30T08:00:05.886Z,20.87
2022-07-30T08:01:09.967Z,20.90
2022-07-30T08:02:13.912Z,20.96
2022-07-30T08:03:16.187Z,21.02
2022-07-30T08:04:18.642Z,21.09
2022-07-30T08:05:21.080Z,21.14
2022-07-30T08:06:29.077Z,21.21
2022-07-30T08:07:33.095Z,21.30
2022-07-30T08:08:35.380Z,21.41
2022-07-30T08:09:40.945Z,21.48
2022-07-30T08:19:12.790Z,21.68
2022-07-30T08:20:15.171Z,21.76
2022-07-30T08:21:19.272Z,21.81
2022-07-30T08:22:21.598Z,21.87
2022-07-30T08:23:24.124Z,21.94
2022-07-30T08:24:28.192Z,21.99
2022-07-30T08:25:30.548Z,22.02
2022-07-30T08:26:32.986Z,22.10
2022-07-30T08:27:37.440Z,22.14
2022-07-30T08:28:41.337Z,22.15
2022-07-30T08:29:49.219Z,22.24
2022-07-30T08:30:51.333Z,22.32
2022-07-30T08:31:55.339Z,22.36
2022-07-30T08:32:57.670Z,22.41
2022-07-30T08:34:01.765Z,22.43
2022-07-30T08:35:05.737Z,22.44
2022-07-30T08:36:10.274Z,22.52
2022-07-30T08:37:11.973Z,22.54
2022-07-30T08:38:14.375Z,22.57
2022-07-30T08:39:16.838Z,22.59
2022-07-30T08:40:19.325Z,22.64
2022-07-30T08:41:21.806Z,22.65
2022-07-30T08:42:25.916Z,22.69
2022-07-30T08:43:28.141Z,22.70
2022-07-30T08:44:32.393Z,22.76
2022-07-30T08:45:35.383Z,22.80
2022-07-30T08:46:37.131Z,22.85
2022-07-30T08:47:41.112Z,22.89
2022-07-30T08:48:43.455Z,22.98
2022-07-30T08:49:47.504Z,23.06
2022-07-30T08:50:51.389Z,23.13
2022-07-30T08:51:53.705Z,23.19
2022-07-30T08:52:57.800Z,23.23
2022-07-30T08:54:00.138Z,23.30
2022-07-30T08:55:02.634Z,23.32
2022-07-30T08:56:05.068Z,23.38
2022-07-30T08:57:07.554Z,23.45
2022-07-30T08:58:09.983Z,23.51
2022-07-30T08:59:12.408Z,23.54
2022-07-30T09:00:14.956Z,23.55
2022-07-30T09:01:17.349Z,23.51
2022-07-30T09:02:25.921Z,23.55
2022-07-30T09:03:23.802Z,23.59
2022-07-30T09:04:26.308Z,23.64
2022-07-30T09:05:28.811Z,23.66
2022-07-30T09:07:33.874Z,23.77
2022-07-30T09:08:36.441Z,23.81
2022-07-30T09:09:40.331Z,23.87
2022-07-30T09:10:49.568Z,23.91
2022-07-30T09:11:45.357Z,23.96
2022-07-30T09:12:47.692Z,23.99
2022-07-30T09:13:55.187Z,24.03
2022-07-30T09:14:58.926Z,24.09
2022-07-30T09:16:01.276Z,24.15
2022-07-30T09:17:04.013Z,24.17
2022-07-30T09:18:07.697Z,24.21
2022-07-30T09:19:11.646Z,24.25
2022-07-30T09:20:13.964Z,24.29
2022-07-30T09:21:16.437Z,24.35
2022-07-30T09:22:24.497Z,24.41
2022-07-30T09:23:26.753Z,24.45
2022-07-30T09:24:29.032Z,24.52
2022-07-30T09:25:31.687Z,24.58
2022-07-30T09:26:39.817Z,24.67
2022-07-30T09:27:43.501Z,24.72
2022-07-30T09:28:45.897Z,24.81
2022-07-30T09:29:54.121Z,24.74
2022-07-30T09:30:56.328Z,24.76
2022-07-30T09:31:58.885Z,24.84
2022-07-30T09:33:02.823Z,24.83
2022-07-30T09:34:04.998Z,24.84
2022-07-30T09:35:09.044Z,24.90
2022-07-30T09:36:12.987Z,24.82
2022-07-30T09:37:15.326Z,24.81
2022-07-30T09:38:17.964Z,24.85
2022-07-30T09:39:20.204Z,24.86
2022-07-30T09:40:24.572Z,24.89
2022-07-30T09:42:33.326Z,24.93
2022-07-30T09:43:37.147Z,24.94
2022-07-30T09:44:45.164Z,25.02
2022-07-30T09:45:56.966Z,25.10
2022-07-30T09:46:52.813Z,25.19
2022-07-30T09:47:55.110Z,25.14
2022-07-30T09:48:57.637Z,25.21
2022-07-30T09:50:05.534Z,25.28
2022-07-30T09:52:08.523Z,25.34
2022-07-30T09:53:16.390Z,25.45
2022-07-30T09:54:18.606Z,25.56
2022-07-30T09:55:26.757Z,25.62
2022-07-30T09:56:30.427Z,25.75
2022-07-30T09:57:34.282Z,25.65
2022-07-30T09:58:36.736Z,25.75
2022-07-30T09:59:40.774Z,25.80
2022-07-30T10:00:44.811Z,25.90
2022-07-30T10:01:50.092Z,25.85
2022-07-30T10:02:51.330Z,25.83
2022-07-30T10:03:55.214Z,25.89
2022-07-30T10:04:59.062Z,25.87
2022-07-30T10:06:01.418Z,25.90
2022-07-30T10:07:03.941Z,25.87
2022-07-30T10:08:09.564Z,25.81
2022-07-30T10:09:13.784Z,25.84
2022-07-30T10:10:14.610Z,25.85
2022-07-30T10:11:17.000Z,25.78
2022-07-30T10:12:19.480Z,25.83
2022-07-30T10:14:30.713Z,25.82
2022-07-30T10:15:27.603Z,25.68
2022-07-30T10:16:29.791Z,25.67
2022-07-30T10:17:33.320Z,25.69
2022-07-30T10:18:41.364Z,25.72
2022-07-30T10:19:45.151Z,25.60
2022-07-30T10:20:49.015Z,25.62
2022-07-30T10:21:51.360Z,25.65
2022-07-30T10:22:55.400Z,25.69
2022-07-30T10:23:59.275Z,25.65
2022-07-30T10:25:01.653Z,25.61
2022-07-30T10:26:04.123Z,25.68
2022-07-30T10:27:07.669Z,25.71
2022-07-30T10:28:09.182Z,25.74
2022-07-30T10:29:17.246Z,25.79
2022-07-30T10:30:24.864Z,25.85
2022-07-30T10:31:47.843Z,25.90
2022-07-30T10:40:58.044Z,25.98
2022-07-30T10:42:00.453Z,25.99
2022-07-30T10:43:02.950Z,26.00
2022-07-30T10:44:10.993Z,26.08
2022-07-30T10:45:18.774Z,26.17
2022-07-30T10:46:22.921Z,26.16
2022-07-30T10:47:29.177Z,26.33
2022-07-30T10:56:55.910Z,26.31
2022-07-30T10:58:00.088Z,26.39
2022-07-30T10:59:03.064Z,26.48
2022-07-30T11:00:04.993Z,26.59
2022-07-30T11:01:16.592Z,26.64
2022-07-30T11:02:10.133Z,26.73
2022-07-30T11:03:15.108Z,26.79
2022-07-30T11:04:16.498Z,26.87
2022-07-30T11:05:27.420Z,26.99
2022-07-30T11:06:24.853Z,27.09
2022-07-30T11:07:26.907Z,27.19
2022-07-30T11:08:31.774Z,27.18
2022-07-30T11:09:31.931Z,27.20
2022-07-30T11:10:34.406Z,27.25
2022-07-30T11:11:59.779Z,27.26
2022-07-30T11:12:43.962Z,27.29
2022-07-30T11:13:46.358Z,27.35
2022-07-30T11:14:48.723Z,27.30
2022-07-30T11:15:52.770Z,27.29
2022-07-30T11:16:55.050Z,27.39
2022-07-30T11:17:57.522Z,27.40
2022-07-30T11:19:12.574Z,27.38
2022-07-30T11:20:04.082Z,27.16
2022-07-30T11:21:08.052Z,27.15
2022-07-30T11:22:11.194Z,27.22
2022-07-30T11:23:14.143Z,27.15
2022-07-30T11:24:15.361Z,27.27
2022-07-30T11:25:17.858Z,27.29
2022-07-30T11:26:20.350Z,27.38
2022-07-30T11:27:24.581Z,27.37
2022-07-30T11:28:27.002Z,27.47
2022-07-30T11:29:32.933Z,27.57
2022-07-30T11:30:31.877Z,27.61
2022-07-30T11:31:37.248Z,27.72
2022-07-30T11:32:38.604Z,27.80
2022-07-30T11:33:40.909Z,27.87
2022-07-30T11:34:44.987Z,27.85
2022-07-30T11:35:47.375Z,27.91
2022-07-30T11:36:49.889Z,27.84
2022-07-30T11:37:52.439Z,27.89
2022-07-30T11:38:54.817Z,27.92
2022-07-30T11:39:58.948Z,27.96
2022-07-30T11:41:02.967Z,28.11
2022-07-30T11:42:05.279Z,28.09
2022-07-30T11:44:11.739Z,28.14
2022-07-30T11:45:14.278Z,28.18
2022-07-30T11:46:18.341Z,28.11
2022-07-30T11:47:22.312Z,28.35
2022-07-30T11:48:26.270Z,28.18
2022-07-30T11:49:28.747Z,28.19
2022-07-30T11:50:31.103Z,28.26
2022-07-30T11:51:35.207Z,28.35
2022-07-30T11:52:37.601Z,28.38
2022-07-30T11:54:44.040Z,28.44
2022-07-30T11:55:46.635Z,28.52
2022-07-30T11:56:49.101Z,28.60
2022-07-30T11:57:51.658Z,28.73
2022-07-30T11:58:55.688Z,28.68
2022-07-30T11:59:58.114Z,28.75
2022-07-30T12:01:02.213Z,28.82
2022-07-30T12:02:06.413Z,28.81
2022-07-30T12:03:08.668Z,28.79
2022-07-30T12:04:11.151Z,28.88
2022-07-30T12:05:15.277Z,28.92
2022-07-30T12:06:19.232Z,28.99
2022-07-30T12:07:21.549Z,28.93
2022-07-30T12:08:31.940Z,29.00
2022-07-30T12:09:29.631Z,29.06
2022-07-30T12:10:31.969Z,29.13
2022-07-30T12:11:34.433Z,29.18
2022-07-30T12:12:36.902Z,29.05
2022-07-30T12:13:42.832Z,29.11
2022-07-30T12:14:41.841Z,29.20
2022-07-30T12:15:44.443Z,29.30
2022-07-30T12:16:46.920Z,29.31
2022-07-30T12:17:51.385Z,29.32
2022-07-30T12:18:53.522Z,29.31
2022-07-30T12:19:30.710Z,29.02
2022-07-30T12:33:44.321Z,29.06
2022-07-30T12:47:58.809Z,29.1
2022-07-30T13:02:14.959Z,29.17
2022-07-30T13:16:25.805Z,29.36
2022-07-30T13:30:40.532Z,29.37
2022-07-30T13:44:56.648Z,29.56
2022-07-30T13:59:06.161Z,29.42
2022-07-30T14:13:21.465Z,29.69
2022-07-30T14:27:34.852Z,29.01
2022-07-30T14:41:48.787Z,28.96
2022-07-30T14:55:58.369Z,28.98
2022-07-30T15:10:11.993Z,29.04
2022-07-30T15:24:26.249Z,29.29
2022-07-30T15:38:43.192Z,30.17
2022-07-30T15:52:57.163Z,29.79
2022-07-30T16:07:10.500Z,29.52
2022-07-30T16:21:25.088Z,29.33
2022-07-30T16:35:48.780Z,28.7
2022-07-30T16:49:50.050Z,28.44
2022-07-30T17:04:04.446Z,28.21
2022-07-30T17:18:15.389Z,27.98
2022-07-30T17:32:29.062Z,27.48
2022-07-30T17:46:41.823Z,26.95
2022-07-30T18:00:54.302Z,26.15
2022-07-30T18:15:07.878Z,25.5
2022-07-30T18:29:19.212Z,25.15
2022-07-30T18:43:32.264Z,24.78
2022-07-30T18:57:44.012Z,24.25
2022-07-30T19:11:56.664Z,23.77
2022-07-30T19:26:09.315Z,23.28
2022-07-30T19:40:22.879Z,23.19
2022-07-30T19:54:36.751Z,23.27
2022-07-30T20:08:50.825Z,23.15
2022-07-30T20:22:59.905Z,22.53
2022-07-30T20:37:13.864Z,22.19
2022-07-30T20:51:33.053Z,21.89
2022-07-30T21:05:37.905Z,21.34
2022-07-30T21:19:52.526Z,20.96
2022-07-30T21:34:02.320Z,21.02
2022-07-30T21:48:15.730Z,21.13
2022-07-30T22:02:29.994Z,21.31
2022-07-30T22:16:46.342Z,21.18
2022-07-30T22:30:57.031Z,21.1
2022-07-30T22:45:10.557Z,20.96
2022-07-30T22:59:29.094Z,20.91
2022-07-30T23:13:36.551Z,20.83
2022-07-30T23:27:50.513Z,20.91
2022-07-30T23:42:04.832Z,20.86
2022-07-30T23:56:18.118Z,20.74
